TAP1978 GCXO-LPMA
Flight info
| Callsign | TAP1978 |
|---|---|
| Flight time | N/A |
| Altitude | 34000 |
| Route | BIMBO DCT EKNOT |
| Aircraft | A20N/M-SDE2E3FGHIRWXY/LB1 |
Departure
| Time | 2026-04-20 09:46 |
|---|---|
| Airport | Tenerife Norte-Ciudad de La Laguna Airport (GCXO) |
Arrival
| Time | N/A |
|---|---|
| Airport | Cristiano Ronaldo International Airport (LPMA) |
| Time | Latitude | Longitude | Altitude | Speed | Heading |
|---|---|---|---|---|---|
| 2026-04-20 09:26 | 28.48688 | -16.34695 | 2052 ft | 0 kts | 21° |
| 2026-04-20 09:38 | 28.48681 | -16.34698 | 2053 ft | 2 kts | 21° |
| 2026-04-20 09:38 | 28.48667 | -16.34704 | 2053 ft | 2 kts | 21° |
| 2026-04-20 09:38 | 28.48653 | -16.34710 | 2054 ft | 2 kts | 21° |
| 2026-04-20 09:38 | 28.48639 | -16.34716 | 2055 ft | 2 kts | 21° |
| 2026-04-20 09:39 | 28.48625 | -16.34722 | 2056 ft | 2 kts | 21° |
| 2026-04-20 09:39 | 28.48611 | -16.34728 | 2057 ft | 2 kts | 21° |
| 2026-04-20 09:39 | 28.48597 | -16.34734 | 2058 ft | 2 kts | 21° |
| 2026-04-20 09:39 | 28.48584 | -16.34742 | 2058 ft | 2 kts | 60° |
| 2026-04-20 09:40 | 28.48582 | -16.34756 | 2059 ft | 0 kts | 104° |
| 2026-04-20 09:40 | 28.48584 | -16.34763 | 2060 ft | 1 kts | 112° |
| 2026-04-20 09:40 | 28.48585 | -16.34765 | 2060 ft | 0 kts | 110° |
| 2026-04-20 09:42 | 28.48585 | -16.34764 | 2059 ft | 0 kts | 110° |
| 2026-04-20 09:42 | 28.48574 | -16.34730 | 2058 ft | 7 kts | 108° |
| 2026-04-20 09:42 | 28.48545 | -16.34637 | 2054 ft | 19 kts | 112° |
| 2026-04-20 09:42 | 28.48491 | -16.34467 | 2045 ft | 25 kts | 112° |
| 2026-04-20 09:43 | 28.48424 | -16.34265 | 2032 ft | 29 kts | 110° |
| 2026-04-20 09:43 | 28.48344 | -16.34038 | 2021 ft | 32 kts | 111° |
| 2026-04-20 09:43 | 28.48266 | -16.33792 | 2016 ft | 32 kts | 112° |
| 2026-04-20 09:43 | 28.48182 | -16.33564 | 2016 ft | 30 kts | 113° |
| 2026-04-20 09:44 | 28.48111 | -16.33338 | 2013 ft | 30 kts | 112° |
| 2026-04-20 09:44 | 28.48035 | -16.33115 | 2008 ft | 30 kts | 112° |
| 2026-04-20 09:44 | 28.47963 | -16.32884 | 1998 ft | 32 kts | 107° |
| 2026-04-20 09:44 | 28.47885 | -16.32637 | 1983 ft | 34 kts | 119° |
| 2026-04-20 09:45 | 28.47760 | -16.32543 | 1976 ft | 12 kts | 207° |
| 2026-04-20 09:45 | 28.47748 | -16.32581 | 1980 ft | 0 kts | 290° |
| 2026-04-20 09:45 | 28.47751 | -16.32589 | 1981 ft | 12 kts | 289° |
| 2026-04-20 09:46 | 28.47871 | -16.32965 | 2008 ft | 86 kts | 294° |
| 2026-04-20 09:46 | 28.48159 | -16.33844 | 2023 ft | 149 kts | 292° |
| 2026-04-20 09:46 | 28.48606 | -16.35011 | 2457 ft | 167 kts | 293° |
| 2026-04-20 09:46 | 28.49086 | -16.36232 | 3155 ft | 173 kts | 291° |
| 2026-04-20 09:47 | 28.49566 | -16.37437 | 3961 ft | 172 kts | 291° |
| 2026-04-20 09:47 | 28.50086 | -16.38730 | 4537 ft | 187 kts | 291° |
| 2026-04-20 09:47 | 28.50656 | -16.40145 | 5037 ft | 209 kts | 291° |
| 2026-04-20 09:47 | 28.51290 | -16.41717 | 5664 ft | 228 kts | 291° |
| 2026-04-20 09:48 | 28.51970 | -16.43394 | 6297 ft | 246 kts | 291° |
| 2026-04-20 09:48 | 28.52713 | -16.45207 | 6921 ft | 264 kts | 291° |
| 2026-04-20 09:48 | 28.53515 | -16.47150 | 7610 ft | 279 kts | 291° |
| 2026-04-20 09:48 | 28.54361 | -16.49164 | 8509 ft | 286 kts | 291° |
| 2026-04-20 09:49 | 28.55243 | -16.51173 | 9431 ft | 291 kts | 295° |
| 2026-04-20 09:49 | 28.56642 | -16.52920 | 10269 ft | 310 kts | 321° |
| 2026-04-20 09:49 | 28.58723 | -16.53871 | 10849 ft | 336 kts | 349° |
| 2026-04-20 09:49 | 28.61136 | -16.53632 | 11299 ft | 360 kts | 18° |
| 2026-04-20 09:50 | 28.63409 | -16.52107 | 11718 ft | 379 kts | 45° |
| 2026-04-20 09:50 | 28.64970 | -16.49590 | 12093 ft | 391 kts | 70° |
| 2026-04-20 09:50 | 28.65532 | -16.46539 | 12426 ft | 399 kts | 94° |
| 2026-04-20 09:50 | 28.65095 | -16.43787 | 12836 ft | 398 kts | 116° |